createdAt,value
2023-05-11T00:00:22.319Z,99.90
2023-05-11T00:02:51.124Z,99.90
2023-05-11T00:05:19.958Z,99.90
2023-05-11T00:07:48.438Z,99.90
2023-05-11T00:10:17.035Z,99.90
2023-05-11T00:12:45.708Z,99.90
2023-05-11T00:15:14.534Z,99.90
2023-05-11T00:17:45.512Z,99.90
2023-05-11T00:20:14.099Z,99.90
2023-05-11T00:22:44.785Z,99.90
2023-05-11T00:25:14.987Z,99.90
2023-05-11T00:27:46.176Z,99.90
2023-05-11T00:30:16.270Z,99.90
2023-05-11T00:32:46.623Z,99.90
2023-05-11T00:35:15.153Z,99.90
2023-05-11T00:37:43.838Z,99.90
2023-05-11T00:40:12.763Z,99.90
2023-05-11T00:42:41.355Z,99.90
2023-05-11T00:45:11.544Z,99.90
2023-05-11T00:47:42.278Z,99.90
2023-05-11T00:50:13.082Z,99.90
2023-05-11T00:52:43.027Z,99.90
2023-05-11T00:55:12.637Z,99.90
2023-05-11T00:57:41.433Z,99.90
2023-05-11T01:00:15.296Z,99.90
2023-05-11T01:02:44.199Z,99.90
2023-05-11T01:05:14.839Z,99.90
2023-05-11T01:07:50.263Z,99.90
2023-05-11T01:10:25.245Z,99.90
2023-05-11T01:13:04.830Z,99.90
2023-05-11T01:15:40.893Z,99.90
2023-05-11T01:18:21.123Z,99.90
2023-05-11T01:20:54.537Z,99.90
2023-05-11T01:23:57.931Z,99.90
2023-05-11T01:26:46.558Z,99.90
2023-05-11T01:30:07.485Z,99.90
2023-05-11T01:32:41.774Z,99.90
2023-05-11T01:35:19.027Z,99.90
2023-05-11T01:37:51.566Z,99.90
2023-05-11T01:40:25.015Z,99.90
2023-05-11T01:43:02.503Z,99.90
2023-05-11T01:45:35.847Z,99.90
2023-05-11T01:48:09.181Z,99.90
2023-05-11T01:50:38.918Z,99.90
2023-05-11T01:53:09.568Z,99.90
2023-05-11T01:55:39.806Z,99.90
2023-05-11T01:58:11.713Z,99.90
2023-05-11T02:00:41.100Z,99.90
2023-05-11T02:03:12.038Z,99.90
2023-05-11T02:05:41.569Z,99.90
2023-05-11T02:08:11.026Z,99.90
2023-05-11T02:10:41.684Z,99.90
2023-05-11T02:13:11.414Z,99.90
2023-05-11T02:15:43.591Z,99.90
2023-05-11T02:18:16.101Z,99.90
2023-05-11T02:20:48.672Z,99.90
2023-05-11T02:23:19.454Z,99.90
2023-05-11T02:25:50.965Z,99.90
2023-05-11T02:28:19.626Z,99.90
2023-05-11T02:30:54.331Z,99.90
2023-05-11T02:33:29.471Z,99.90
2023-05-11T02:35:59.374Z,99.90
2023-05-11T02:38:34.379Z,99.90
2023-05-11T02:41:08.437Z,99.90
2023-05-11T02:43:40.766Z,99.90
2023-05-11T02:46:14.466Z,99.90
2023-05-11T02:48:48.502Z,99.90
2023-05-11T02:51:20.670Z,99.90
2023-05-11T02:53:54.538Z,99.90
2023-05-11T02:56:24.886Z,99.90
2023-05-11T02:58:55.168Z,99.90
2023-05-11T03:01:30.367Z,99.90
2023-05-11T03:04:01.158Z,99.90
2023-05-11T03:06:32.028Z,99.90
2023-05-11T03:09:03.352Z,99.90
2023-05-11T03:11:34.711Z,99.90
2023-05-11T03:14:04.208Z,99.90
2023-05-11T03:16:33.493Z,99.90
2023-05-11T03:19:04.584Z,99.90
2023-05-11T03:21:34.049Z,99.90
2023-05-11T03:24:03.021Z,99.90
2023-05-11T03:26:35.953Z,99.90
2023-05-11T03:29:05.523Z,99.90
2023-05-11T03:31:34.148Z,99.90
2023-05-11T03:34:04.237Z,99.90
2023-05-11T03:36:39.518Z,99.90
2023-05-11T03:39:10.239Z,99.90
2023-05-11T03:41:41.294Z,99.90
2023-05-11T03:44:13.105Z,99.90
2023-05-11T03:46:46.356Z,99.90
2023-05-11T03:49:18.155Z,99.90
2023-05-11T03:51:47.502Z,99.90
2023-05-11T03:54:16.421Z,99.90
2023-05-11T03:56:44.949Z,99.90
2023-05-11T03:59:17.279Z,99.90
2023-05-11T04:01:46.111Z,99.90
2023-05-11T04:04:17.194Z,99.90
2023-05-11T04:06:45.872Z,99.90
2023-05-11T04:09:18.217Z,99.90
2023-05-11T04:11:46.961Z,99.90
2023-05-11T04:14:15.582Z,99.90
2023-05-11T04:16:44.103Z,99.90
2023-05-11T04:19:12.784Z,99.90
2023-05-11T04:21:42.657Z,99.90
2023-05-11T04:24:11.394Z,99.90
2023-05-11T04:26:41.624Z,99.90
2023-05-11T04:29:11.575Z,99.90
2023-05-11T04:31:40.143Z,99.90
2023-05-11T04:34:09.421Z,99.90
2023-05-11T04:36:40.395Z,99.90
2023-05-11T04:39:10.576Z,99.90
2023-05-11T04:41:40.621Z,99.90
2023-05-11T04:44:10.300Z,99.90
2023-05-11T04:46:39.578Z,99.90
2023-05-11T04:49:08.955Z,99.90
2023-05-11T04:51:40.594Z,99.90
2023-05-11T04:54:12.228Z,99.90
2023-05-11T04:56:41.057Z,99.90
2023-05-11T04:59:10.649Z,99.90
2023-05-11T05:01:39.375Z,99.90
2023-05-11T05:04:08.741Z,99.90
2023-05-11T05:06:38.308Z,99.90
2023-05-11T05:09:07.069Z,99.90
2023-05-11T05:11:37.506Z,99.90
2023-05-11T05:14:05.999Z,99.90
2023-05-11T05:16:34.905Z,99.90
2023-05-11T05:19:04.942Z,99.90
2023-05-11T05:21:35.816Z,99.90
2023-05-11T05:24:06.213Z,99.90
2023-05-11T05:26:34.777Z,99.90
2023-05-11T05:29:05.411Z,99.90
2023-05-11T05:31:34.267Z,99.90
2023-05-11T05:34:03.856Z,99.90
2023-05-11T05:36:32.763Z,99.90
2023-05-11T05:39:01.291Z,99.90
2023-05-11T05:41:30.693Z,99.90
2023-05-11T05:43:59.480Z,99.90
2023-05-11T05:46:29.944Z,99.90
2023-05-11T05:48:58.859Z,99.90
2023-05-11T05:51:27.869Z,99.90
2023-05-11T05:53:56.826Z,99.90
2023-05-11T05:56:26.517Z,99.90
2023-05-11T05:58:55.848Z,99.90
2023-05-11T06:01:25.275Z,99.90
2023-05-11T06:03:56.576Z,99.90
2023-05-11T06:06:27.270Z,99.90
2023-05-11T06:08:55.797Z,99.90
2023-05-11T06:11:24.593Z,99.90
2023-05-11T06:13:53.596Z,99.90
2023-05-11T06:16:22.255Z,99.90
2023-05-11T06:18:50.834Z,99.90
2023-05-11T06:21:20.793Z,99.90
2023-05-11T06:23:49.477Z,99.90
2023-05-11T06:26:19.249Z,99.90
2023-05-11T06:28:48.721Z,99.90
2023-05-11T06:31:18.953Z,99.90
2023-05-11T06:33:49.778Z,99.90
2023-05-11T06:36:26.778Z,99.90
2023-05-11T06:38:55.532Z,99.90
2023-05-11T06:41:24.636Z,99.90
2023-05-11T06:43:54.084Z,99.90
2023-05-11T06:46:28.434Z,99.90
2023-05-11T06:48:57.071Z,99.90
2023-05-11T06:51:27.144Z,99.90
2023-05-11T06:53:55.875Z,99.90
2023-05-11T06:56:25.274Z,99.90
2023-05-11T06:58:53.818Z,99.90
2023-05-11T07:01:22.455Z,99.90
2023-05-11T07:03:52.729Z,99.90
2023-05-11T07:06:23.632Z,99.90
2023-05-11T07:08:53.733Z,99.90
2023-05-11T07:11:22.534Z,99.90
2023-05-11T07:13:51.195Z,99.90
2023-05-11T07:16:19.984Z,99.90
2023-05-11T07:18:48.487Z,99.90
2023-05-11T07:21:17.078Z,99.90
2023-05-11T07:23:45.786Z,99.90
2023-05-11T07:26:15.814Z,99.90
2023-05-11T07:28:44.288Z,99.90
2023-05-11T07:31:12.926Z,99.90
2023-05-11T07:33:41.465Z,99.90
2023-05-11T07:36:09.990Z,99.90
2023-05-11T07:38:38.811Z,99.90
2023-05-11T07:41:09.433Z,99.90
2023-05-11T07:43:41.326Z,99.90
2023-05-11T07:46:09.882Z,99.90
2023-05-11T07:48:38.520Z,99.90
2023-05-11T07:51:07.825Z,99.90
2023-05-11T07:53:36.652Z,99.90
2023-05-11T07:56:05.553Z,99.90
2023-05-11T07:58:34.170Z,99.90
2023-05-11T08:01:04.704Z,99.90
2023-05-11T08:03:33.311Z,99.90
2023-05-11T08:06:01.761Z,99.90
2023-05-11T08:08:31.488Z,99.90
2023-05-11T08:10:59.906Z,99.90
2023-05-11T08:13:28.372Z,99.90
2023-05-11T08:15:57.360Z,99.90
2023-05-11T08:18:27.781Z,99.90
2023-05-11T08:20:56.461Z,99.90
2023-05-11T08:23:24.931Z,99.90
2023-05-11T08:25:54.344Z,99.90
2023-05-11T08:28:23.470Z,99.90
2023-05-11T08:30:56.531Z,99.90
2023-05-11T08:35:59.017Z,99.90
2023-05-11T08:38:27.537Z,99.90
2023-05-11T08:40:56.194Z,99.90
2023-05-11T08:43:26.563Z,99.90
2023-05-11T08:45:58.676Z,99.90
2023-05-11T08:48:29.119Z,99.90
2023-05-11T08:50:58.196Z,99.90
2023-05-11T08:53:26.590Z,99.90
2023-05-11T08:55:56.548Z,99.90
2023-05-11T08:58:25.536Z,99.90
2023-05-11T09:00:55.666Z,99.90
2023-05-11T09:03:25.154Z,99.90
2023-05-11T09:05:55.248Z,99.90
2023-05-11T09:08:25.085Z,99.90
2023-05-11T09:10:53.666Z,99.90
2023-05-11T09:13:24.556Z,99.90
2023-05-11T09:15:53.863Z,99.90
2023-05-11T09:18:22.370Z,99.90
2023-05-11T09:20:52.525Z,99.90
2023-05-11T09:23:27.518Z,99.90
2023-05-11T09:25:56.664Z,99.90
2023-05-11T09:28:26.979Z,99.90
2023-05-11T09:30:55.821Z,99.90
2023-05-11T09:33:26.453Z,99.90
2023-05-11T09:35:57.769Z,99.90
2023-05-11T09:38:27.784Z,99.90
2023-05-11T09:40:57.971Z,99.90
2023-05-11T09:43:27.916Z,99.90
2023-05-11T09:45:57.903Z,99.90
2023-05-11T09:48:30.107Z,99.90
2023-05-11T09:51:04.566Z,99.90
2023-05-11T09:53:46.362Z,99.90
2023-05-11T09:56:15.824Z,99.90
2023-05-11T09:58:49.199Z,99.90
2023-05-11T10:01:19.266Z,99.90
2023-05-11T10:03:49.524Z,99.90
2023-05-11T10:06:20.318Z,99.90
2023-05-11T10:08:50.582Z,99.90
2023-05-11T10:11:24.701Z,99.90
2023-05-11T10:13:54.939Z,99.90
2023-05-11T10:16:24.187Z,99.90
2023-05-11T10:18:53.083Z,99.90
2023-05-11T10:21:22.443Z,99.90
2023-05-11T10:23:52.668Z,99.90
2023-05-11T10:26:21.773Z,99.90
2023-05-11T10:28:50.237Z,99.90
2023-05-11T10:31:24.047Z,99.90
2023-05-11T10:33:52.979Z,99.90
2023-05-11T10:36:24.321Z,99.90
2023-05-11T10:38:55.173Z,99.90
2023-05-11T10:41:46.315Z,99.90
2023-05-11T10:44:36.775Z,99.90
2023-05-11T10:47:23.437Z,99.90
2023-05-11T10:50:27.137Z,99.90
2023-05-11T10:53:10.582Z,99.90
2023-05-11T10:55:58.120Z,99.90
2023-05-11T10:58:39.202Z,99.90
2023-05-11T11:01:39.590Z,99.90
2023-05-11T11:04:11.133Z,99.90
2023-05-11T11:06:40.649Z,99.90
2023-05-11T11:09:13.077Z,99.90
2023-05-11T11:11:46.143Z,99.90
2023-05-11T11:14:16.311Z,99.90
2023-05-11T11:17:24.437Z,99.90
2023-05-11T11:19:53.100Z,99.90
2023-05-11T11:22:47.512Z,99.90
2023-05-11T11:25:37.305Z,99.90
2023-05-11T11:28:07.285Z,99.90
2023-05-11T11:30:36.104Z,99.90
2023-05-11T11:33:35.841Z,99.90
2023-05-11T11:36:04.877Z,99.90
2023-05-11T11:38:34.146Z,99.90
2023-05-11T11:41:03.534Z,99.90
2023-05-11T11:43:47.277Z,99.90
2023-05-11T11:46:28.174Z,96.80
2023-05-11T11:49:08.904Z,95.40
2023-05-11T11:51:40.290Z,93.50
2023-05-11T11:54:09.806Z,96.60
2023-05-11T11:56:45.678Z,95.30
2023-05-11T11:59:16.453Z,90.60
2023-05-11T12:01:46.496Z,80.90
2023-05-11T12:04:39.558Z,85.20
2023-05-11T12:07:11.505Z,73.10
2023-05-11T12:09:42.280Z,73.90
2023-05-11T12:12:12.297Z,73.90
2023-05-11T12:14:48.968Z,74.70
2023-05-11T12:17:26.013Z,74.50
2023-05-11T12:19:55.152Z,70.60
2023-05-11T12:22:25.140Z,74.00
2023-05-11T12:25:00.152Z,76.30
2023-05-11T12:27:29.274Z,78.10
2023-05-11T12:30:00.475Z,78.90
2023-05-11T12:32:30.861Z,79.20
2023-05-11T12:35:04.507Z,81.00
2023-05-11T12:37:34.195Z,81.30
2023-05-11T12:40:02.807Z,82.70
2023-05-11T12:42:32.636Z,83.90
2023-05-11T12:45:04.224Z,84.00
2023-05-11T12:47:33.680Z,75.90
2023-05-11T12:50:02.689Z,76.00
2023-05-11T12:52:31.521Z,73.90
2023-05-11T12:55:01.229Z,72.10
2023-05-11T12:57:31.957Z,72.40
2023-05-11T13:00:14.113Z,71.60
2023-05-11T13:02:48.353Z,64.00
2023-05-11T13:05:19.434Z,58.20
2023-05-11T13:07:49.174Z,54.20
2023-05-11T13:10:17.771Z,49.30
2023-05-11T13:12:50.740Z,49.70
2023-05-11T13:15:21.977Z,48.30
2023-05-11T13:17:58.110Z,48.40
2023-05-11T13:20:29.685Z,46.20
2023-05-11T13:23:06.661Z,45.60
2023-05-11T13:25:35.931Z,43.40
2023-05-11T13:28:04.851Z,44.90
2023-05-11T13:30:35.412Z,46.40
2023-05-11T13:33:04.560Z,48.10
2023-05-11T13:35:32.917Z,50.00
2023-05-11T13:38:01.432Z,50.20
2023-05-11T13:40:30.223Z,51.00
2023-05-11T13:42:58.658Z,52.30
2023-05-11T13:45:27.149Z,52.10
2023-05-11T13:47:57.084Z,52.40
2023-05-11T13:50:26.774Z,52.50
2023-05-11T13:52:55.683Z,53.00
2023-05-11T13:55:24.041Z,53.10
2023-05-11T13:57:52.967Z,53.70
2023-05-11T14:00:21.868Z,54.10
2023-05-11T14:02:51.813Z,54.60
2023-05-11T14:05:22.376Z,55.00
2023-05-11T14:07:51.014Z,55.60
2023-05-11T14:10:20.204Z,57.20
2023-05-11T14:12:49.237Z,59.10
2023-05-11T14:15:17.910Z,60.90
2023-05-11T14:17:46.613Z,62.40
2023-05-11T14:20:15.421Z,64.00
2023-05-11T14:22:45.226Z,65.00
2023-05-11T14:25:13.851Z,65.70
2023-05-11T14:27:42.285Z,66.00
2023-05-11T14:30:11.771Z,67.00
2023-05-11T14:32:40.539Z,68.50
2023-05-11T14:35:09.487Z,70.50
2023-05-11T14:37:38.503Z,71.10
2023-05-11T14:40:09.878Z,72.30
2023-05-11T14:42:38.404Z,74.30
2023-05-11T14:45:07.811Z,74.50
2023-05-11T14:47:36.746Z,75.90
2023-05-11T14:50:05.887Z,78.00
2023-05-11T14:52:34.402Z,79.20
2023-05-11T14:55:02.816Z,80.30
2023-05-11T14:57:32.662Z,81.60
2023-05-11T15:00:01.189Z,82.90
2023-05-11T15:02:30.495Z,83.80
2023-05-11T15:04:58.937Z,84.60
2023-05-11T15:07:27.364Z,85.90
2023-05-11T15:09:56.062Z,87.70
2023-05-11T15:12:25.385Z,87.70
2023-05-11T15:14:55.387Z,88.30
2023-05-11T15:17:23.902Z,89.30
2023-05-11T15:19:52.595Z,89.80
2023-05-11T15:22:22.753Z,89.50
2023-05-11T15:24:51.185Z,89.90
2023-05-11T15:27:20.035Z,90.20
2023-05-11T15:29:49.426Z,90.60
2023-05-11T15:32:19.462Z,91.20
2023-05-11T15:34:59.290Z,91.40
2023-05-11T15:37:28.868Z,91.10
2023-05-11T15:39:57.384Z,91.10
2023-05-11T15:42:27.130Z,90.80
2023-05-11T15:44:55.497Z,90.70
2023-05-11T15:47:25.591Z,90.80
2023-05-11T15:49:54.067Z,90.80
2023-05-11T15:52:22.966Z,91.40
2023-05-11T15:54:51.449Z,92.10
2023-05-11T15:57:19.889Z,93.00
2023-05-11T15:59:48.698Z,92.70
2023-05-11T16:02:17.484Z,91.80
2023-05-11T16:04:47.384Z,90.90
2023-05-11T16:07:16.011Z,90.90
2023-05-11T16:09:44.811Z,90.80
2023-05-11T16:12:13.493Z,91.10
2023-05-11T16:14:42.028Z,91.30
2023-05-11T16:17:10.483Z,91.30
2023-05-11T16:19:39.130Z,91.10
2023-05-11T16:22:09.126Z,91.10
2023-05-11T16:24:37.577Z,91.70
2023-05-11T16:27:06.418Z,91.80
2023-05-11T16:29:35.441Z,92.00
2023-05-11T16:32:03.970Z,92.00
2023-05-11T16:34:32.685Z,92.20
2023-05-11T16:37:01.028Z,92.60
2023-05-11T16:39:30.844Z,92.20
2023-05-11T16:41:59.381Z,92.20
2023-05-11T16:44:27.942Z,92.20
2023-05-11T16:46:56.785Z,92.20
2023-05-11T16:49:25.294Z,92.10
2023-05-11T16:51:53.937Z,92.30
2023-05-11T16:54:22.690Z,92.40
2023-05-11T16:56:53.514Z,92.80
2023-05-11T16:59:22.490Z,93.00
2023-05-11T17:01:51.336Z,93.30
2023-05-11T17:04:20.190Z,93.70
2023-05-11T17:06:48.608Z,94.10
2023-05-11T17:09:17.807Z,94.40
2023-05-11T17:11:46.505Z,94.90
2023-05-11T17:14:16.755Z,95.20
2023-05-11T17:16:45.195Z,95.80
2023-05-11T17:19:13.886Z,96.30
2023-05-11T17:21:42.558Z,96.80
2023-05-11T17:24:11.152Z,97.20
2023-05-11T17:26:47.993Z,97.40
2023-05-11T17:29:18.474Z,98.10
2023-05-11T17:31:53.729Z,98.70
2023-05-11T17:34:26.029Z,98.40
2023-05-11T17:36:57.047Z,97.80
2023-05-11T17:39:25.668Z,97.30
2023-05-11T17:41:54.420Z,97.10
2023-05-11T17:44:24.324Z,97.50
2023-05-11T17:46:53.192Z,97.70
2023-05-11T17:49:21.951Z,97.70
2023-05-11T17:51:50.883Z,98.10
2023-05-11T17:54:19.485Z,98.20
2023-05-11T17:56:48.700Z,98.50
2023-05-11T17:59:18.679Z,98.70
2023-05-11T18:01:50.872Z,98.70
2023-05-11T18:04:19.389Z,98.50
2023-05-11T18:06:47.765Z,98.40
2023-05-11T18:09:19.189Z,97.80
2023-05-11T18:11:47.750Z,97.30
2023-05-11T18:14:16.668Z,96.80
2023-05-11T18:16:45.333Z,96.60
2023-05-11T18:19:15.294Z,96.80
2023-05-11T18:21:44.081Z,97.10
2023-05-11T18:24:14.623Z,97.60
2023-05-11T18:26:43.235Z,98.30
2023-05-11T18:29:11.790Z,98.80
2023-05-11T18:31:40.475Z,99.40
2023-05-11T18:34:09.576Z,99.90
2023-05-11T18:36:39.996Z,99.90
2023-05-11T18:39:09.581Z,99.90
2023-05-11T18:41:38.089Z,99.90
2023-05-11T18:44:06.825Z,99.90
2023-05-11T18:46:35.460Z,99.90
2023-05-11T18:49:04.290Z,99.90
2023-05-11T18:51:33.069Z,99.90
2023-05-11T18:54:03.078Z,99.90
2023-05-11T18:56:31.725Z,99.90
2023-05-11T18:59:00.343Z,99.90
2023-05-11T19:01:46.133Z,99.90
2023-05-11T19:04:19.721Z,99.90
2023-05-11T19:06:48.937Z,99.90
2023-05-11T19:09:19.580Z,99.90
2023-05-11T19:11:48.464Z,99.90
2023-05-11T19:14:17.159Z,99.90
2023-05-11T19:16:45.631Z,99.90
2023-05-11T19:19:14.422Z,99.90
2023-05-11T19:21:43.940Z,99.90
2023-05-11T19:24:14.398Z,99.90
2023-05-11T19:26:52.240Z,99.90
2023-05-11T19:29:27.636Z,99.90
2023-05-11T19:31:56.433Z,99.90
2023-05-11T19:34:25.269Z,99.90
2023-05-11T19:36:54.117Z,99.90
2023-05-11T19:39:22.908Z,99.90
2023-05-11T19:41:53.034Z,99.90
2023-05-11T19:44:21.948Z,99.90
2023-05-11T19:46:50.638Z,99.90
2023-05-11T19:49:22.056Z,99.90
2023-05-11T19:51:50.943Z,99.90
2023-05-11T19:54:19.653Z,99.90
2023-05-11T19:56:49.266Z,99.90
2023-05-11T19:59:19.694Z,99.90
2023-05-11T20:01:48.227Z,99.90
2023-05-11T20:04:17.084Z,99.90
2023-05-11T20:06:45.860Z,99.90
2023-05-11T20:09:14.809Z,99.90
2023-05-11T20:11:43.364Z,99.90
2023-05-11T20:14:12.210Z,99.90
2023-05-11T20:16:42.587Z,99.90
2023-05-11T20:19:12.144Z,99.90
2023-05-11T20:21:41.029Z,99.90
2023-05-11T20:24:09.970Z,99.90
2023-05-11T20:26:38.595Z,99.90
2023-05-11T20:29:09.200Z,99.90
2023-05-11T20:31:38.981Z,99.90
2023-05-11T20:34:09.157Z,99.90
2023-05-11T20:36:37.823Z,99.90
2023-05-11T20:39:07.237Z,99.90
2023-05-11T20:41:36.482Z,99.90
2023-05-11T20:44:06.157Z,99.90
2023-05-11T20:46:35.870Z,99.90
2023-05-11T20:49:06.224Z,99.90
2023-05-11T20:51:38.104Z,99.90
2023-05-11T20:54:07.613Z,99.90
2023-05-11T20:56:37.033Z,99.90
2023-05-11T20:59:06.436Z,99.90
2023-05-11T21:01:36.938Z,99.90
2023-05-11T21:04:06.704Z,99.90
2023-05-11T21:06:37.404Z,99.90
2023-05-11T21:09:07.107Z,99.90
2023-05-11T21:11:36.360Z,99.90
2023-05-11T21:14:05.912Z,99.90
2023-05-11T21:16:35.645Z,99.90
2023-05-11T21:19:05.209Z,99.90
2023-05-11T21:21:34.818Z,99.90
2023-05-11T21:24:06.207Z,99.90
2023-05-11T21:26:35.156Z,99.90
2023-05-11T21:29:04.075Z,99.90
2023-05-11T21:31:33.724Z,99.90
2023-05-11T21:34:02.765Z,99.90
2023-05-11T21:36:31.675Z,99.90
2023-05-11T21:39:00.331Z,99.90
2023-05-11T21:41:30.949Z,99.90
2023-05-11T21:44:01.034Z,99.90
2023-05-11T21:46:29.645Z,99.90
2023-05-11T21:48:58.196Z,99.90
2023-05-11T21:51:26.887Z,99.90
2023-05-11T21:53:55.378Z,99.90
2023-05-11T21:56:25.128Z,99.90
2023-05-11T21:58:55.731Z,99.90
2023-05-11T22:01:24.574Z,99.90
2023-05-11T22:03:53.224Z,99.90
2023-05-11T22:06:22.490Z,99.90
2023-05-11T22:08:51.315Z,99.90
2023-05-11T22:11:21.651Z,99.90
2023-05-11T22:13:51.169Z,99.90
2023-05-11T22:16:21.239Z,99.90
2023-05-11T22:18:49.992Z,99.90
2023-05-11T22:21:18.570Z,99.90
2023-05-11T22:23:47.191Z,99.90
2023-05-11T22:26:15.737Z,99.90
2023-05-11T22:28:44.232Z,99.90
2023-05-11T22:31:12.885Z,99.90
2023-05-11T22:33:43.426Z,99.90
2023-05-11T22:36:13.204Z,99.90
2023-05-11T22:38:41.973Z,99.90
2023-05-11T22:41:10.855Z,99.90
2023-05-11T22:43:39.364Z,99.90
2023-05-11T22:46:08.028Z,99.90
2023-05-11T22:48:36.689Z,99.90
2023-05-11T22:51:07.918Z,99.90
2023-05-11T22:53:36.464Z,99.90
2023-05-11T22:56:05.477Z,99.90
2023-05-11T22:58:34.228Z,99.90
2023-05-11T23:01:02.866Z,99.90
2023-05-11T23:03:31.436Z,99.90
2023-05-11T23:05:59.986Z,99.90
2023-05-11T23:08:29.920Z,99.90
2023-05-11T23:10:58.461Z,99.90
2023-05-11T23:13:27.131Z,99.90
2023-05-11T23:15:55.566Z,99.90
2023-05-11T23:18:24.280Z,99.90
2023-05-11T23:20:56.901Z,99.90
2023-05-11T23:23:25.680Z,99.90
2023-05-11T23:25:55.737Z,99.90
2023-05-11T23:28:24.466Z,99.90
2023-05-11T23:30:53.032Z,99.90
2023-05-11T23:33:21.734Z,99.90
2023-05-11T23:35:50.440Z,99.90
2023-05-11T23:38:19.054Z,99.90
2023-05-11T23:40:47.571Z,99.90
2023-05-11T23:43:17.785Z,99.90
2023-05-11T23:45:46.388Z,99.90
2023-05-11T23:48:18.110Z,99.90
2023-05-11T23:50:46.600Z,99.90
2023-05-11T23:53:15.146Z,99.90
2023-05-11T23:55:43.920Z,99.90
2023-05-11T23:58:12.580Z,99.90
